Time;durP1;ratioP1;P1;durP2;ratioP2;P2;SDS_P1;SDS_P2;PMS_P1;PMS_P2;Temp;Humidity;BMP_temperature;BMP_pressure;BME280_temperature;BME280_humidity;BME280_pressure;Samples;Min_cycle;Max_cycle;Signal;HPM_P1;HPM_P2
2023/07/10 00:00:04;;;;;;;7.28;3.92;;;;;;;25.42;58.37;99611.34;334457;28;18893;-63
2023/07/10 00:00:18;;;;;;;7.28;4.13;;;;;;;25.43;58.17;99613.00;334960;28;18086;-62
2023/07/10 00:00:30;;;;;;;8.77;4.22;;;;;;;25.44;58.87;99608.56;333929;28;17855;-62
2023/07/10 00:00:42;;;;;;;7.70;4.00;;;;;;;25.44;58.73;99608.56;337972;28;5481;-63
2023/07/10 00:00:55;;;;;;;6.43;3.70;;;;;;;25.45;59.09;99616.38;335795;28;18035;-63
2023/07/10 00:01:07;;;;;;;6.53;3.70;;;;;;;25.46;58.91;99612.72;338649;28;5434;-63
2023/07/10 00:01:19;;;;;;;8.50;3.90;;;;;;;25.46;58.99;99612.72;335668;28;17670;-62
2023/07/10 00:01:32;;;;;;;7.63;4.15;;;;;;;25.47;59.20;99611.78;337477;28;4637;-62
2023/07/10 00:01:45;;;;;;;6.95;4.30;;;;;;;25.47;58.86;99610.91;334410;28;18271;-62
2023/07/10 00:01:57;;;;;;;7.75;4.35;;;;;;;25.48;59.13;99608.09;332488;28;4589;-62
2023/07/10 00:02:10;;;;;;;8.13;4.40;;;;;;;25.48;58.90;99612.59;333418;28;12050;-63
2023/07/10 00:02:22;;;;;;;6.82;4.30;;;;;;;25.50;58.47;99608.78;335704;28;5483;-62
2023/07/10 00:02:34;;;;;;;5.55;3.90;;;;;;;25.49;58.84;99612.47;335224;28;4956;-62
2023/07/10 00:02:47;;;;;;;5.28;3.90;;;;;;;25.51;58.94;99613.16;334860;28;18152;-62
2023/07/10 00:02:59;;;;;;;4.90;3.97;;;;;;;25.51;58.64;99614.94;335065;28;4770;-62
2023/07/10 00:03:11;;;;;;;7.10;3.90;;;;;;;25.51;58.64;99610.50;333550;28;18640;-63
2023/07/10 00:03:23;;;;;;;8.07;4.07;;;;;;;25.52;58.74;99603.34;334127;28;4812;-62
2023/07/10 00:03:35;;;;;;;6.95;4.20;;;;;;;25.52;59.01;99612.16;333516;28;18740;-62
2023/07/10 00:03:47;;;;;;;6.57;4.38;;;;;;;25.52;58.63;99606.81;336412;28;4711;-62
2023/07/10 00:03:59;;;;;;;6.05;4.22;;;;;;;25.52;58.86;99609.50;332416;28;5502;-62
2023/07/10 00:04:19;;;;;;;6.00;3.85;;;;;;;25.54;59.00;99609.34;336033;28;5253;-63
2023/07/10 00:04:31;;;;;;;5.75;3.88;;;;;;;25.55;59.20;99604.84;332969;28;17953;-62
2023/07/10 00:04:43;;;;;;;6.80;4.13;;;;;;;25.51;59.51;99605.16;335639;28;5406;-63
2023/07/10 00:04:55;;;;;;;8.48;4.07;;;;;;;25.52;59.64;99609.50;329585;28;11441;-63
2023/07/10 00:05:12;;;;;;;7.30;4.10;;;;;;;25.52;59.73;99606.81;336293;28;5211;-62
2023/07/10 00:05:24;;;;;;;5.28;3.78;;;;;;;25.54;59.37;99613.84;332585;28;17701;-62
2023/07/10 00:05:36;;;;;;;5.80;3.60;;;;;;;25.53;59.45;99607.66;332806;28;17819;-63
2023/07/10 00:05:48;;;;;;;6.60;3.60;;;;;;;25.54;59.04;99611.19;336052;28;4760;-63
2023/07/10 00:06:00;;;;;;;5.95;3.67;;;;;;;25.55;58.81;99604.84;335448;28;10851;-63
2023/07/10 00:06:17;;;;;;;5.50;3.58;;;;;;;25.56;59.07;99610.03;328100;28;18025;-63
2023/07/10 00:06:29;;;;;;;5.07;3.70;;;;;;;25.58;58.85;99609.91;332018;28;18064;-63
2023/07/10 00:06:42;;;;;;;6.65;3.70;;;;;;;25.59;58.80;99606.22;332610;28;18189;-63
2023/07/10 00:06:55;;;;;;;6.97;3.65;;;;;;;25.57;58.99;99610.88;336612;28;4851;-62
2023/07/10 00:07:07;;;;;;;6.57;3.70;;;;;;;25.59;58.56;99611.56;333387;28;18157;-62
2023/07/10 00:07:19;;;;;;;5.97;3.80;;;;;;;25.58;58.76;99609.91;336330;28;4578;-63
2023/07/10 00:07:31;;;;;;;5.32;3.67;;;;;;;25.57;58.74;99614.34;334672;28;18216;-63
2023/07/10 00:07:43;;;;;;;5.07;3.58;;;;;;;25.58;58.45;99609.91;333122;28;17679;-63
2023/07/10 00:07:55;;;;;;;6.15;3.78;;;;;;;25.56;59.03;99609.22;330998;28;4512;-63
2023/07/10 00:08:07;;;;;;;6.43;3.78;;;;;;;25.54;59.14;99611.19;333504;28;18017;-63
2023/07/10 00:08:19;;;;;;;5.85;3.80;;;;;;;25.56;58.84;99606.53;336227;28;4690;-63
2023/07/10 00:08:31;;;;;;;6.07;3.97;;;;;;;25.52;58.93;99609.50;333092;28;12881;-63
2023/07/10 00:08:44;;;;;;;5.95;4.03;;;;;;;25.52;58.96;99611.31;335640;28;4509;-62
2023/07/10 00:08:56;;;;;;;5.38;3.70;;;;;;;25.52;58.60;99606.81;335294;28;4745;-62
2023/07/10 00:09:08;;;;;;;5.65;3.60;;;;;;;25.51;58.88;99610.50;333561;28;18241;-62
2023/07/10 00:09:20;;;;;;;6.45;3.80;;;;;;;25.52;58.71;99606.81;336215;28;4562;-62
2023/07/10 00:09:32;;;;;;;6.30;4.00;;;;;;;25.48;59.00;99610.75;333981;28;5632;-62
2023/07/10 00:09:44;;;;;;;5.50;4.05;;;;;;;25.49;59.05;99609.78;333970;28;18131;-62
2023/07/10 00:09:56;;;;;;;5.85;3.90;;;;;;;25.50;58.77;99608.78;336324;28;4672;-63
2023/07/10 00:10:14;;;;;;;6.63;3.97;;;;;;;25.49;59.18;99607.13;333644;28;18161;-62
2023/07/10 00:10:27;;;;;;;5.43;3.72;;;;;;;25.52;58.50;99609.50;333338;28;17696;-63
2023/07/10 00:10:39;;;;;;;5.55;3.50;;;;;;;25.54;58.09;99611.19;333484;28;17587;-64
2023/07/10 00:10:53;;;;;;;6.85;3.45;;;;;;;25.52;57.52;99608.66;336549;28;4685;-62
2023/07/10 00:11:27;;;;;;;6.18;3.55;;;;;;;25.51;57.49;99610.50;329082;28;18271;-63
2023/07/10 00:11:41;;;;;;;5.57;3.88;;;;;;;25.57;57.18;99602.88;332609;28;17249;-63
2023/07/10 00:11:53;;;;;;;6.60;3.85;;;;;;;25.57;57.03;99613.53;333850;28;11255;-62
2023/07/10 00:12:13;;;;;;;6.13;3.65;;;;;;;25.59;56.68;99606.22;336501;28;5188;-62
2023/07/10 00:12:25;;;;;;;6.25;3.67;;;;;;;25.61;56.55;99606.91;328829;28;17861;-63
2023/07/10 00:12:38;;;;;;;5.90;3.60;;;;;;;25.61;56.58;99605.09;336006;28;4595;-63
2023/07/10 00:12:50;;;;;;;5.13;3.42;;;;;;;25.62;56.23;99603.28;332900;28;18127;-63
2023/07/10 00:13:02;;;;;;;5.77;3.60;;;;;;;25.63;56.79;99599.63;336527;28;4734;-63
2023/07/10 00:13:15;;;;;;;7.15;3.97;;;;;;;25.62;57.33;99609.44;332983;28;9420;-62
2023/07/10 00:13:28;;;;;;;7.35;4.03;;;;;;;25.63;56.90;99608.44;335132;28;6161;-63
2023/07/10 00:13:41;;;;;;;8.02;3.97;;;;;;;25.64;56.98;99596.81;332749;28;19423;-62
2023/07/10 00:13:54;;;;;;;7.22;3.85;;;;;;;25.65;57.15;99600.31;334808;28;4642;-63
2023/07/10 00:14:16;;;;;;;7.18;3.90;;;;;;;25.68;56.98;99605.34;333861;28;18042;-63
2023/07/10 00:14:30;;;;;;;6.32;4.03;;;;;;;25.69;57.31;99597.19;332751;28;18630;-63
2023/07/10 00:14:42;;;;;;;6.40;3.70;;;;;;;25.71;57.15;99600.56;332444;28;18406;-62
2023/07/10 00:14:54;;;;;;;8.07;3.80;;;;;;;25.73;57.28;99597.75;333619;28;4771;-62
2023/07/10 00:15:19;;;;;;;7.78;3.90;;;;;;;25.74;56.92;99599.44;336466;28;4580;-62
2023/07/10 00:15:31;;;;;;;5.93;3.90;;;;;;;25.72;56.93;99598.75;327650;28;17425;-63
2023/07/10 00:15:43;;;;;;;6.50;3.95;;;;;;;25.74;57.12;99599.44;334708;28;17701;-62
2023/07/10 00:15:55;;;;;;;6.13;3.83;;;;;;;25.76;57.29;99602.78;329459;28;5347;-63
2023/07/10 00:16:18;;;;;;;6.53;3.70;;;;;;;25.78;56.78;99600.81;335924;28;6650;-63
2023/07/10 00:16:30;;;;;;;7.57;3.97;;;;;;;25.79;56.96;99591.81;333097;28;17761;-63
2023/07/10 00:16:42;;;;;;;7.15;3.97;;;;;;;25.81;56.69;99600.50;335595;28;4678;-62
2023/07/10 00:16:55;;;;;;;7.18;3.80;;;;;;;25.83;56.64;99587.88;336452;28;4554;-62
2023/07/10 00:17:09;;;;;;;8.00;3.88;;;;;;;25.84;56.96;99591.41;331582;28;18227;-62
2023/07/10 00:17:21;;;;;;;6.05;3.70;;;;;;;25.82;56.48;99596.88;334322;28;18071;-62
2023/07/10 00:17:33;;;;;;;5.55;3.80;;;;;;;25.83;56.35;99590.53;332586;28;18493;-63
2023/07/10 00:17:51;;;;;;;5.22;3.70;;;;;;;25.85;56.31;99585.91;336313;28;5597;-63
2023/07/10 00:18:12;;;;;;;6.82;4.13;;;;;;;25.86;56.24;99592.91;332464;28;17607;-63
2023/07/10 00:18:24;;;;;;;6.22;4.20;;;;;;;25.86;56.18;99589.41;332932;28;17662;-62
2023/07/10 00:18:36;;;;;;;6.55;4.00;;;;;;;25.86;56.21;99587.59;335382;28;5637;-63
2023/07/10 00:18:49;;;;;;;6.28;3.80;;;;;;;25.88;56.22;99590.94;333539;28;18314;-63
2023/07/10 00:19:01;;;;;;;5.63;3.50;;;;;;;25.89;56.17;99587.28;335184;28;6474;-63
2023/07/10 00:19:14;;;;;;;7.03;3.58;;;;;;;25.91;56.50;99593.31;333584;28;18392;-63
2023/07/10 00:19:26;;;;;;;8.37;3.80;;;;;;;25.91;56.49;99595.97;336103;28;4974;-62
2023/07/10 00:19:38;;;;;;;8.93;3.80;;;;;;;25.92;56.48;99586.19;333697;28;18096;-62
2023/07/10 00:19:49;;;;;;;7.10;3.55;;;;;;;25.93;56.61;99587.03;336454;28;4671;-63
2023/07/10 00:20:12;;;;;;;5.95;3.58;;;;;;;25.94;56.41;99589.53;336353;28;4676;-63
2023/07/10 00:20:26;;;;;;;7.78;4.10;;;;;;;25.95;56.33;99588.53;332031;28;17575;-62
2023/07/10 00:20:38;;;;;;;6.25;3.92;;;;;;;25.95;56.47;99593.84;333538;28;12809;-63
2023/07/10 00:20:50;;;;;;;5.82;3.70;;;;;;;25.96;56.53;99586.69;336398;28;4597;-63
2023/07/10 00:21:02;;;;;;;4.85;3.60;;;;;;;25.96;56.45;99587.56;333942;28;4666;-63
2023/07/10 00:21:14;;;;;;;4.22;3.55;;;;;;;25.96;56.37;99592.88;335183;28;17718;-63
2023/07/10 00:21:26;;;;;;;4.43;3.60;;;;;;;25.95;56.12;99601.03;336626;28;4557;-62
2023/07/10 00:21:39;;;;;;;5.22;3.58;;;;;;;25.95;56.55;99591.19;332422;28;16123;-62
2023/07/10 00:21:51;;;;;;;6.90;3.70;;;;;;;25.93;56.48;99587.84;333427;28;17247;-62
2023/07/10 00:22:04;;;;;;;7.50;3.90;;;;;;;25.90;56.58;99594.31;333859;28;18643;-63
2023/07/10 00:22:16;;;;;;;7.35;4.03;;;;;;;25.88;56.39;99592.78;337722;28;4647;-62
2023/07/10 00:22:28;;;;;;;7.82;4.10;;;;;;;25.86;56.39;99595.56;335357;28;4686;-63
2023/07/10 00:22:40;;;;;;;8.68;3.90;;;;;;;25.85;56.84;99591.22;335329;28;18033;-63
2023/07/10 00:22:52;;;;;;;7.95;3.85;;;;;;;25.84;56.88;99589.56;336315;28;5170;-62
2023/07/10 00:23:04;;;;;;;5.70;3.80;;;;;;;25.84;56.97;99588.72;333894;28;18225;-63
2023/07/10 00:23:17;;;;;;;6.70;3.80;;;;;;;25.83;57.46;99592.38;331933;28;4658;-63
2023/07/10 00:23:29;;;;;;;7.10;3.80;;;;;;;25.83;57.08;99587.88;333524;28;11981;-63
2023/07/10 00:23:41;;;;;;;8.00;3.87;;;;;;;25.84;57.06;99592.22;336245;28;4593;-63
2023/07/10 00:23:53;;;;;;;7.55;3.70;;;;;;;25.83;57.46;99593.19;335726;28;4692;-63
2023/07/10 00:24:05;;;;;;;6.03;3.55;;;;;;;25.84;57.25;99594.88;333918;28;17929;-63
2023/07/10 00:24:17;;;;;;;4.93;3.55;;;;;;;25.83;57.28;99593.19;335300;28;6478;-62
2023/07/10 00:24:29;;;;;;;6.50;3.70;;;;;;;25.85;57.34;99591.22;333868;28;16369;-62
2023/07/10 00:24:42;;;;;;;7.63;3.80;;;;;;;25.85;57.08;99591.22;336334;28;5288;-62
2023/07/10 00:24:54;;;;;;;7.40;3.70;;;;;;;25.86;57.07;99592.91;331963;28;4855;-62
2023/07/10 00:25:10;;;;;;;7.40;3.70;;;;;;;25.85;57.27;99593.88;333774;28;18191;-62
2023/07/10 00:25:23;;;;;;;8.55;3.85;;;;;;;25.85;57.08;99585.06;333636;28;18985;-62
2023/07/10 00:25:37;;;;;;;7.88;3.80;;;;;;;25.83;56.97;99589.72;335685;28;5161;-62
2023/07/10 00:25:49;;;;;;;6.93;3.70;;;;;;;25.83;57.15;99593.19;333026;28;17882;-64
2023/07/10 00:26:01;;;;;;;6.05;4.00;;;;;;;25.83;57.03;99593.19;334067;28;11047;-63
2023/07/10 00:26:22;;;;;;;5.65;3.95;;;;;;;25.82;57.01;99586.22;335724;28;4812;-63
2023/07/10 00:26:37;;;;;;;6.75;3.72;;;;;;;25.84;56.96;99588.72;333844;28;17838;-63
2023/07/10 00:26:49;;;;;;;7.00;3.78;;;;;;;25.84;57.20;99584.25;333636;28;17983;-63
2023/07/10 00:27:02;;;;;;;6.18;3.80;;;;;;;25.84;56.91;99584.25;333850;28;18206;-63
2023/07/10 00:27:13;;;;;;;6.90;3.92;;;;;;;25.85;56.97;99587.72;336269;28;5408;-63
2023/07/10 00:27:25;;;;;;;6.82;3.97;;;;;;;25.84;57.26;99584.25;332906;28;16511;-62
2023/07/10 00:27:37;;;;;;;6.53;3.80;;;;;;;25.85;57.39;99587.72;335310;28;4716;-63
2023/07/10 00:27:50;;;;;;;5.18;3.80;;;;;;;25.86;57.37;99592.09;335741;28;4732;-63
2023/07/10 00:28:02;;;;;;;5.55;3.78;;;;;;;25.89;57.52;99591.78;336103;28;4684;-63
2023/07/10 00:28:21;;;;;;;5.75;3.65;;;;;;;25.86;57.01;99590.25;333267;28;18089;-62
2023/07/10 00:28:34;;;;;;;5.45;3.47;;;;;;;25.87;57.00;99586.59;333054;28;16559;-63
2023/07/10 00:28:49;;;;;;;6.68;3.40;;;;;;;25.88;56.67;99588.28;333977;28;5514;-63
2023/07/10 00:29:18;;;;;;;7.47;3.70;;;;;;;25.85;57.40;99591.22;332473;28;18129;-62
2023/07/10 00:29:31;;;;;;;10.57;4.10;;;;;;;25.86;57.26;99592.91;333007;28;17204;-64
2023/07/10 00:29:44;;;;;;;10.15;3.90;;;;;;;25.89;57.45;99591.78;328813;28;18967;-62
2023/07/10 00:29:56;;;;;;;5.63;3.67;;;;;;;25.89;56.99;99591.78;336211;28;5127;-63
2023/07/10 00:30:23;;;;;;;5.53;3.70;;;;;;;25.89;56.96;99587.28;336268;28;4681;-63
2023/07/10 00:30:35;;;;;;;6.40;3.67;;;;;;;25.89;56.81;99592.59;332337;28;17367;-63
2023/07/10 00:30:49;;;;;;;7.35;4.00;;;;;;;25.90;56.56;99589.00;335998;28;4858;-63
2023/07/10 00:31:01;;;;;;;7.47;3.92;;;;;;;25.90;56.34;99589.00;333435;28;16523;-62
2023/07/10 00:31:13;;;;;;;7.80;3.92;;;;;;;25.90;56.43;99593.50;336269;28;4790;-63
2023/07/10 00:31:25;;;;;;;6.50;3.83;;;;;;;25.87;56.36;99589.25;333709;28;17509;-62
2023/07/10 00:31:39;;;;;;;6.75;4.00;;;;;;;25.85;56.61;99590.41;335850;28;4608;-62
2023/07/10 00:31:51;;;;;;;6.00;3.88;;;;;;;25.84;56.75;99589.56;333325;28;18258;-62
2023/07/10 00:32:10;;;;;;;5.68;3.80;;;;;;;25.84;56.91;99592.22;336415;28;5170;-63
2023/07/10 00:32:22;;;;;;;5.20;3.80;;;;;;;25.83;57.05;99582.53;332843;28;17464;-63
2023/07/10 00:32:34;;;;;;;6.32;4.03;;;;;;;25.84;57.24;99589.56;335036;28;4731;-62
2023/07/10 00:32:52;;;;;;;6.55;4.10;;;;;;;25.84;57.24;99584.25;333352;28;5160;-63
2023/07/10 00:33:06;;;;;;;6.55;3.72;;;;;;;25.86;57.34;99587.59;332756;28;18087;-63
2023/07/10 00:33:20;;;;;;;6.55;3.33;;;;;;;25.87;56.86;99578.59;333386;28;18014;-63
2023/07/10 00:33:32;;;;;;;5.38;3.35;;;;;;;25.87;57.07;99586.59;332661;28;18175;-63
2023/07/10 00:33:47;;;;;;;4.80;3.40;;;;;;;25.88;57.01;99580.28;336129;28;4942;-63
2023/07/10 00:33:59;;;;;;;3.92;3.47;;;;;;;25.88;56.90;99579.47;333022;28;17851;-63
2023/07/10 00:34:16;;;;;;;3.90;3.47;;;;;;;25.87;56.95;99575.94;333445;28;18445;-63
2023/07/10 00:34:28;;;;;;;5.20;3.83;;;;;;;25.87;56.88;99583.91;332515;28;17753;-63
2023/07/10 00:34:40;;;;;;;6.60;4.10;;;;;;;25.86;56.95;99581.44;332985;28;5262;-63
2023/07/10 00:34:52;;;;;;;6.85;4.07;;;;;;;25.86;57.18;99582.25;336163;28;4701;-63
2023/07/10 00:35:04;;;;;;;8.32;4.07;;;;;;;25.85;57.20;99575.25;336341;28;4674;-63
2023/07/10 00:35:16;;;;;;;7.85;4.07;;;;;;;25.85;57.37;99579.75;334059;28;17902;-63
2023/07/10 00:35:28;;;;;;;7.22;3.90;;;;;;;25.87;57.14;99577.75;335722;28;5288;-63
2023/07/10 00:35:41;;;;;;;6.45;3.90;;;;;;;25.85;57.12;99580.56;335183;28;5198;-62
2023/07/10 00:35:53;;;;;;;7.22;4.07;;;;;;;25.84;57.73;99573.59;332835;28;18282;-62
2023/07/10 00:36:28;;;;;;;6.80;4.07;;;;;;;25.83;57.39;99577.22;336272;28;4597;-62
2023/07/10 00:36:41;;;;;;;6.93;3.80;;;;;;;25.82;57.63;99580.06;333139;29;17232;-63
2023/07/10 00:36:54;;;;;;;8.13;4.18;;;;;;;25.80;57.60;99574.88;331818;28;18185;-62
2023/07/10 00:37:06;;;;;;;8.45;4.20;;;;;;;25.81;57.61;99579.19;336457;28;4659;-63
2023/07/10 00:37:18;;;;;;;7.15;4.28;;;;;;;25.80;57.12;99566.88;332785;28;18075;-63
2023/07/10 00:37:30;;;;;;;6.93;4.30;;;;;;;25.80;57.46;99572.22;335967;28;4680;-63
2023/07/10 00:37:46;;;;;;;6.38;4.10;;;;;;;25.81;56.93;99570.38;336637;28;4797;-63
2023/07/10 00:38:01;;;;;;;5.88;3.75;;;;;;;25.80;57.19;99580.19;333749;28;18594;-63
2023/07/10 00:38:25;;;;;;;7.22;3.88;;;;;;;25.80;57.23;99571.38;333215;28;18430;-62
2023/07/10 00:38:37;;;;;;;7.20;3.85;;;;;;;25.81;57.37;99573.88;333145;28;17428;-62
2023/07/10 00:38:49;;;;;;;6.03;3.92;;;;;;;25.80;57.35;99576.72;336318;28;4542;-63
2023/07/10 00:39:10;;;;;;;7.50;3.90;;;;;;;25.81;57.41;99571.22;332123;28;4773;-63
2023/07/10 00:39:26;;;;;;;7.60;3.80;;;;;;;25.81;57.41;99578.38;333957;28;17454;-63
2023/07/10 00:39:38;;;;;;;6.97;3.78;;;;;;;25.82;57.22;99575.56;332329;28;18133;-62
2023/07/10 00:39:50;;;;;;;6.90;4.00;;;;;;;25.83;57.47;99573.72;335416;28;5387;-62
2023/07/10 00:40:17;;;;;;;6.83;4.07;;;;;;;25.83;57.06;99566.56;336583;28;6482;-63
2023/07/10 00:40:32;;;;;;;5.95;3.80;;;;;;;25.84;57.19;99573.59;331306;28;18443;-63
2023/07/10 00:40:46;;;;;;;5.18;4.00;;;;;;;25.85;56.66;99579.75;332930;28;19203;-62
2023/07/10 00:41:01;;;;;;;4.43;3.90;;;;;;;25.84;56.68;99573.59;333775;28;4690;-63
2023/07/10 00:41:14;;;;;;;4.53;3.70;;;;;;;25.84;56.81;99576.25;333598;28;12096;-62
2023/07/10 00:41:34;;;;;;;6.50;3.58;;;;;;;25.83;56.84;99571.06;338537;28;5156;-62
2023/07/10 00:41:49;;;;;;;7.60;3.75;;;;;;;25.80;57.21;99572.22;336090;28;17679;-62
2023/07/10 00:42:10;;;;;;;5.40;3.97;;;;;;;25.82;56.80;99570.25;331095;28;18219;-62
2023/07/10 00:42:24;;;;;;;5.87;3.93;;;;;;;25.83;56.68;99571.91;334552;28;17312;-63
2023/07/10 00:42:35;;;;;;;6.45;3.97;;;;;;;25.84;56.74;99578.91;334383;28;18389;-62
2023/07/10 00:43:01;;;;;;;5.72;3.95;;;;;;;25.84;56.83;99568.25;337767;28;4663;-62
2023/07/10 00:43:13;;;;;;;4.27;3.80;;;;;;;25.86;56.52;99571.63;336158;28;17572;-62
2023/07/10 00:44:01;;;;;;;4.60;3.65;;;;;;;25.86;56.44;99568.94;333936;28;5190;-63
2023/07/10 00:44:14;;;;;;;4.82;3.42;;;;;;;25.87;56.59;99567.94;332397;28;18270;-62
2023/07/10 00:44:35;;;;;;;4.90;3.40;;;;;;;25.86;56.30;99568.94;332946;28;18016;-62
2023/07/10 00:44:54;;;;;;;5.43;3.33;;;;;;;25.87;56.07;99572.44;334100;28;17938;-62
2023/07/10 00:45:12;;;;;;;8.27;3.50;;;;;;;25.87;55.76;99570.59;333728;28;17700;-62
2023/07/10 00:45:23;;;;;;;7.40;3.60;;;;;;;25.88;55.58;99574.97;333641;28;18945;-62
2023/07/10 00:45:35;;;;;;;5.13;3.40;;;;;;;25.87;55.57;99573.28;333565;28;16051;-63
2023/07/10 00:45:50;;;;;;;6.82;3.67;;;;;;;25.88;56.10;99572.31;336252;28;5375;-62
2023/07/10 00:46:21;;;;;;;7.28;3.92;;;;;;;25.89;55.66;99570.47;334462;28;17819;-62
2023/07/10 00:46:38;;;;;;;4.68;3.70;;;;;;;25.88;55.35;99574.97;332609;28;17704;-62
2023/07/10 00:47:02;;;;;;;5.32;3.58;;;;;;;25.87;55.15;99567.94;333342;28;17892;-63
2023/07/10 00:47:21;;;;;;;7.50;3.92;;;;;;;25.88;55.22;99569.63;332147;28;19412;-63
2023/07/10 00:47:37;;;;;;;7.38;3.70;;;;;;;25.86;54.93;99571.63;332102;28;18095;-63
2023/07/10 00:48:03;;;;;;;7.35;3.78;;;;;;;25.86;54.75;99574.28;329052;28;18154;-62
2023/07/10 00:48:21;;;;;;;5.22;3.78;;;;;;;25.84;54.82;99578.91;332633;28;18005;-62
2023/07/10 00:48:53;;;;;;;7.57;3.90;;;;;;;25.83;54.77;99574.56;334943;28;17718;-62
2023/07/10 00:49:14;;;;;;;8.13;3.70;;;;;;;25.83;54.86;99577.22;335699;28;17070;-62
2023/07/10 00:49:44;;;;;;;5.53;3.75;;;;;;;25.81;54.65;99576.53;331330;28;17872;-62
2023/07/10 00:50:03;;;;;;;8.48;4.18;;;;;;;25.80;54.59;99572.22;335593;28;17495;-63
2023/07/10 00:50:29;;;;;;;8.00;4.07;;;;;;;25.69;55.22;99575.91;337458;28;17754;-63
2023/07/10 00:50:45;;;;;;;6.60;4.05;;;;;;;25.74;54.88;99570.16;333686;28;17098;-63
2023/07/10 00:51:03;;;;;;;5.55;3.90;;;;;;;25.75;54.77;99577.13;333074;28;17533;-62
2023/07/10 00:51:26;;;;;;;5.43;3.92;;;;;;;25.77;54.90;99577.81;333022;28;18033;-62
2023/07/10 00:51:44;;;;;;;6.35;4.10;;;;;;;25.77;54.90;99572.50;332892;28;17197;-63
2023/07/10 00:52:03;;;;;;;6.47;4.20;;;;;;;25.79;54.96;99575.03;329346;28;17906;-62
2023/07/10 00:52:20;;;;;;;7.05;4.07;;;;;;;25.78;54.79;99579.50;333982;28;17270;-62
2023/07/10 00:52:38;;;;;;;5.25;3.63;;;;;;;25.78;54.85;99579.50;333003;28;17721;-63
2023/07/10 00:52:50;;;;;;;5.78;3.75;;;;;;;25.77;55.03;99583.16;333562;28;17764;-62
2023/07/10 00:53:10;;;;;;;5.53;3.83;;;;;;;25.78;55.25;99584.84;335107;28;4785;-62
2023/07/10 00:53:28;;;;;;;5.22;3.80;;;;;;;25.77;55.15;99584.97;333809;28;17446;-62
2023/07/10 00:53:44;;;;;;;5.95;3.90;;;;;;;25.75;55.05;99585.13;333592;28;17690;-62
2023/07/10 00:53:57;;;;;;;7.35;3.80;;;;;;;25.74;55.24;99583.47;328942;28;17950;-62
2023/07/10 00:54:39;;;;;;;7.13;3.75;;;;;;;25.71;55.30;99579.25;333911;28;11853;-62
2023/07/10 00:54:54;;;;;;;5.82;3.78;;;;;;;25.66;55.47;99588.69;333887;28;17439;-63
2023/07/10 00:55:30;;;;;;;5.68;3.90;;;;;;;25.66;55.18;99588.69;333702;28;17745;-63
2023/07/10 00:55:44;;;;;;;6.63;3.75;;;;;;;25.67;55.31;99587.69;332538;28;16986;-63
2023/07/10 00:56:01;;;;;;;4.95;3.58;;;;;;;25.67;55.48;99595.69;332300;28;18045;-63
2023/07/10 00:56:18;;;;;;;6.80;3.80;;;;;;;25.67;55.73;99593.84;332390;28;17645;-62
2023/07/10 00:56:38;;;;;;;7.18;3.72;;;;;;;25.60;55.52;99590.13;333661;28;18817;-63
2023/07/10 00:56:53;;;;;;;5.82;3.85;;;;;;;25.61;55.78;99593.63;335603;28;16330;-63
2023/07/10 00:57:13;;;;;;;5.57;4.18;;;;;;;25.63;55.79;99591.66;332964;28;18087;-62
2023/07/10 00:57:36;;;;;;;6.20;4.20;;;;;;;25.55;56.23;99586.22;333165;28;17833;-62
2023/07/10 00:57:56;;;;;;;6.07;3.60;;;;;;;25.58;55.88;99593.94;331269;28;17220;-63
2023/07/10 00:58:37;;;;;;;5.93;3.95;;;;;;;25.47;56.33;99603.78;332995;28;17766;-63
2023/07/10 00:58:49;;;;;;;6.00;4.15;;;;;;;25.46;56.02;99599.44;332400;28;17277;-63
2023/07/10 00:59:27;;;;;;;6.75;4.18;;;;;;;25.48;55.73;99589.47;335818;28;6640;-62
2023/07/10 00:59:41;;;;;;;6.13;3.85;;;;;;;25.50;55.75;99603.47;332079;28;17650;-63
2023/07/10 00:59:53;;;;;;;6.32;4.03;;;;;;;25.50;55.71;99603.47;333174;28;18337;-62
2023/07/10 01:00:23;;;;;;;7.15;4.20;;;;;;;25.46;55.99;99601.25;337575;28;5282;-63
2023/07/10 01:00:35;;;;;;;6.65;4.40;;;;;;;25.46;55.74;99602.09;332624;28;18091;-63
2023/07/10 01:01:22;;;;;;;6.75;4.07;;;;;;;25.43;56.13;99607.69;335306;28;5631;-63
2023/07/10 01:01:34;;;;;;;7.15;4.10;;;;;;;25.42;56.17;99603.38;332222;28;17814;-63
2023/07/10 01:02:11;;;;;;;6.43;3.92;;;;;;;25.40;56.18;99610.66;334922;29;4600;-63
2023/07/10 01:02:23;;;;;;;8.13;3.75;;;;;;;25.40;56.18;99613.31;331654;29;17817;-63
2023/07/10 01:02:36;;;;;;;7.75;4.00;;;;;;;25.40;56.13;99615.16;332077;29;18271;-63
2023/07/10 01:02:49;;;;;;;6.50;3.92;;;;;;;25.39;56.22;99611.63;335952;29;4572;-62
2023/07/10 01:03:01;;;;;;;7.95;3.80;;;;;;;25.38;56.30;99614.47;333448;28;17966;-63
2023/07/10 01:03:13;;;;;;;8.00;3.85;;;;;;;25.39;56.16;99616.94;334955;28;5254;-62
2023/07/10 01:03:26;;;;;;;8.27;3.88;;;;;;;25.39;56.33;99616.94;332519;28;16498;-62
2023/07/10 01:03:41;;;;;;;5.85;4.10;;;;;;;25.38;56.05;99620.63;336278;28;4561;-63
2023/07/10 01:03:53;;;;;;;7.50;4.13;;;;;;;25.30;56.75;99612.53;333369;28;16812;-62
2023/07/10 01:04:05;;;;;;;6.78;4.00;;;;;;;25.27;56.67;99618.13;333965;28;11823;-62
2023/07/10 01:04:19;;;;;;;5.82;4.00;;;;;;;25.27;56.76;99618.13;335531;28;4655;-63
2023/07/10 01:04:31;;;;;;;4.97;4.00;;;;;;;25.28;56.85;99619.81;333585;28;17870;-62
2023/07/10 01:04:49;;;;;;;5.22;3.90;;;;;;;25.29;56.76;99622.34;336323;28;4567;-62
2023/07/10 01:05:03;;;;;;;7.40;4.00;;;;;;;25.31;56.50;99624.84;331906;28;18702;-63
2023/07/10 01:05:17;;;;;;;8.75;4.00;;;;;;;25.30;56.88;99625.84;328671;28;5091;-63
2023/07/10 01:05:31;;;;;;;8.23;3.95;;;;;;;25.32;56.75;99631.84;334601;28;4831;-62
2023/07/10 01:05:43;;;;;;;6.05;3.95;;;;;;;25.29;56.77;99625.00;335477;28;19005;-62
2023/07/10 01:05:58;;;;;;;6.70;4.18;;;;;;;25.29;56.68;99626.78;335897;28;11571;-62
2023/07/10 01:06:23;;;;;;;7.82;4.20;;;;;;;25.25;56.69;99633.41;338302;28;11372;-63
2023/07/10 01:06:35;;;;;;;8.38;3.80;;;;;;;25.26;56.59;99629.75;330955;28;17682;-63
2023/07/10 01:06:47;;;;;;;8.95;3.75;;;;;;;25.27;56.87;99634.09;336047;28;16201;-62
2023/07/10 01:06:59;;;;;;;8.50;3.80;;;;;;;25.23;56.89;99632.69;338165;28;5365;-63
2023/07/10 01:07:14;;;;;;;10.38;3.92;;;;;;;25.23;57.09;99635.34;337738;28;5511;-63
2023/07/10 01:07:29;;;;;;;11.85;4.20;;;;;;;25.24;56.87;99639.72;333170;28;18650;-63
2023/07/10 01:07:47;;;;;;;10.43;4.28;;;;;;;25.25;56.83;99641.38;335602;28;12198;-62
2023/07/10 01:08:01;;;;;;;8.70;4.30;;;;;;;25.20;57.04;99633.81;333883;28;18912;-62
2023/07/10 01:08:13;;;;;;;7.20;4.25;;;;;;;25.22;56.89;99631.03;333353;28;19047;-64
2023/07/10 01:08:26;;;;;;;7.18;4.40;;;;;;;25.21;57.12;99634.63;336370;28;5392;-63
2023/07/10 01:08:42;;;;;;;7.75;4.40;;;;;;;25.18;57.07;99632.28;333657;28;18239;-63
2023/07/10 01:09:05;;;;;;;7.95;4.43;;;;;;;25.12;57.56;99631.03;333819;28;18291;-63
2023/07/10 01:09:17;;;;;;;9.52;4.47;;;;;;;25.16;57.21;99636.91;333312;28;17381;-63
2023/07/10 01:09:29;;;;;;;9.32;4.50;;;;;;;25.17;57.16;99638.56;331726;28;4612;-62
2023/07/10 01:09:47;;;;;;;8.20;4.32;;;;;;;25.18;57.06;99629.63;335535;28;4741;-62
2023/07/10 01:10:05;;;;;;;6.72;4.10;;;;;;;25.15;57.02;99629.91;333832;28;18748;-63
2023/07/10 01:10:17;;;;;;;6.77;4.47;;;;;;;25.13;57.17;99640.66;332637;28;17834;-64
2023/07/10 01:10:29;;;;;;;7.10;4.55;;;;;;;25.15;57.32;99643.19;332830;28;18125;-63
2023/07/10 01:10:41;;;;;;;6.45;4.43;;;;;;;25.17;57.36;99638.56;333931;28;6400;-63
2023/07/10 01:10:53;;;;;;;6.57;4.40;;;;;;;25.13;57.37;99638.00;335049;28;5212;-63
2023/07/10 01:11:05;;;;;;;7.53;4.72;;;;;;;25.14;57.19;99644.19;332670;28;17936;-63
2023/07/10 01:11:19;;;;;;;6.72;4.60;;;;;;;25.14;57.28;99638.88;334970;28;5170;-63
2023/07/10 01:11:34;;;;;;;5.20;4.10;;;;;;;25.16;57.45;99636.91;333050;28;17624;-63
2023/07/10 01:11:46;;;;;;;6.90;4.20;;;;;;;25.17;57.39;99641.22;332342;28;17659;-62
2023/07/10 01:11:58;;;;;;;8.13;4.43;;;;;;;25.17;57.20;99644.72;331772;28;10799;-63
2023/07/10 01:12:11;;;;;;;7.28;4.57;;;;;;;25.19;57.14;99637.44;335136;28;4512;-63
2023/07/10 01:12:24;;;;;;;8.70;4.57;;;;;;;25.20;57.24;99648.94;334122;28;6191;-62
2023/07/10 01:12:38;;;;;;;8.57;4.43;;;;;;;25.22;57.30;99639.03;328218;28;19277;-64
2023/07/10 01:12:51;;;;;;;7.20;3.95;;;;;;;25.24;57.31;99635.22;332036;28;18948;-62
2023/07/10 01:13:04;;;;;;;8.77;3.88;;;;;;;25.24;57.21;99645.03;335149;28;4640;-63